Hurricane Symbol View the latest observations near Atlantic Potential Tropical Cyclone One.

Station SGXA2 - ST GEORGE MXAK Image indicating link to RSS feed of recent meteorological observations for station SGXA2


Conditions at SGXA2 as of
2255 GMT on 06/17/2024:
     

Click on the graph icon in the table below to see a time series plot of the last five days of that observation.

5-day plot - Wind Direction Wind Direction (WDIR): NE ( 50 deg true )
5-day plot - Wind Speed Wind Speed (WSPD): 10 kts
5-day plot - Wind Gust Wind Gust (GST): 14 kts
5-day plot - Air Temperature Air Temperature (ATMP): 49.3 °F
5-day plot - Dew Point Dew Point (DEWP): 43.2 °F
5-day plot - Wind Chill Wind Chill (CHILL): 44.8 °F
5-day plot - Wind Speed at 10 Meters Wind Speed at 10 meters (WSPD10M): 8 kts
5-day plot - Wind Speed at 20 Meters Wind Speed at 20 meters (WSPD20M): 10 kts
5-day plot -  Wind Speed, Wind Gust and Atmospheric Pressure Combined plot of Wind Speed, Gust, and Air Pressure
Previous observations
TIME
(GMT)
5-day plot - Wind Direction
WDIR
 
5-day plot - Wind Speed
WSPD
kts
5-day plot - Wind Gust
GST
kts
5-day plot - Wave Height
WVHT
ft
5-day plot - Dominant Wave Period
DPD
sec
5-day plot - Average Wave Period
APD
sec
5-day plot - Mean Wave Direction
MWD
 
5-day plot - Atmospheric Pressure
PRES
in
5-day plot - Pressure Tendency
PTDY
in
5-day plot - Air Temperature
ATMP
°F
5-day plot - Water Temperature
WTMP
°F
5-day plot - Dew Point
DEWP
°F
5-day plot - Salinity
SAL
psu
5-day plot - Visibility
VIS
nmi
5-day plot - Tide (above MLLW)
TIDE
ft
2024-06-17 2245 NE 10 13------ 49.3- 43.3---
2024-06-17 2225 NE 11 14------ 49.6- 43.5---
2024-06-17 2215 NE 10 14------ 49.5- 43.7---
2024-06-17 2205 NE 12 16------ 49.1- 43.3---
2024-06-17 2155 NE 12 16------ 49.3- 43.5---
2024-06-17 2145 NE 11 17------ 49.3- 43.7---
2024-06-17 2135 NE 11 15------ 49.3- 43.7---
2024-06-17 2125 NE 11 16------ 49.1- 43.7---
2024-06-17 2115 NE 11 14------ 48.9- 43.7---
2024-06-17 2105 NE 11 15------ 48.2- 43.5---
2024-06-17 2055 NE 10 14------ 48.0- 43.7---
2024-06-17 2045 NE 10 13------ 47.5- 43.9---
2024-06-17 2035 NE 10 13------ 47.5- 43.9---
2024-06-17 2025 NE 10 14------ 48.0- 44.1---
2024-06-17 2015 NE 9 13------ 47.7- 44.2---
2024-06-17 2006 NE 8 11------ 47.1- 44.2---
2024-06-17 1955 NE 9 13------ 47.3- 44.2---
2024-06-17 1945 NE 8 12------ 47.3- 44.6---
2024-06-17 1935 NE 8 12------ 47.7- 45.0---
2024-06-17 1925 NE 9 11------ 46.8- 44.8---
2024-06-17 1915 NE 7 11------ 46.2- 44.8---
2024-06-17 1906 NE 7 11------ 46.0- 44.8---
2024-06-17 1855 NE 8 11------ 46.6- 45.1---
2024-06-17 1845ENE 8 11------ 46.6- 46.0---
2024-06-17 1835 NE 7 11------ 45.7- 45.7---
2024-06-17 1825 NE 5 10------ 45.1- 45.1---
2024-06-17 1815NNE 5 9------ 45.0- 45.0---
2024-06-17 1805NNE 5 8------ 44.4- 44.4---
2024-06-17 1755NNE 6 10------ 44.2- 44.2---
2024-06-17 1736 NE 7 10------ 44.1- 44.1---
2024-06-17 1725 NE 8 10------ 43.9- 43.9---
2024-06-17 1715 NE 9 11------ 43.5- 43.5---
2024-06-17 1705 NE 8 10------ 43.5- 43.5---
2024-06-17 1655 NE 8 10------ 43.2- 43.2---
2024-06-17 1646ENE 8 11------ 42.6- 42.6---
2024-06-17 1635ENE 6 9------ 41.9- 41.9---
2024-06-17 1625NNE 3 6------ 41.0- 41.0---
2024-06-17 1615 NE 5 8------ 40.8- 40.8---
2024-06-17 1605ENE 4 6------ 39.6- 39.6---
2024-06-17 1555- 0 3------ 39.4- 39.4---
2024-06-17 1535 S 1 2------ 38.5- 38.5---
2024-06-17 1525NNE 1 3------ 38.3- 38.3---
2024-06-17 1515 N 1 3------ 37.8- 37.8---
2024-06-17 1505NNE 2 5------ 37.6- 37.6---
2024-06-17 1455 NE 4 5------ 37.0- 37.0---
2024-06-17 1445ENE 2 4------ 37.6- 37.6---
2024-06-17 1435 NE 4 5------ 37.9- 37.9---
2024-06-17 1425ENE 2 3------ 38.1- 38.1---
2024-06-17 1415 E 1 2------ 38.3- 38.3---
2024-06-17 1405 NE 1 2------ 38.3- 38.3---
2024-06-17 1355NNE 2 3------ 38.5- 38.5---
2024-06-17 1345NNE 3 5------ 38.7- 38.7---
2024-06-17 1335 NE 4 6------ 38.8- 38.8---
2024-06-17 1325 NE 6 8------ 38.7- 38.7---
2024-06-17 1315 NE 6 9------ 38.3- 38.3---
2024-06-17 1305ENE 3 5------ 37.4- 37.4---
2024-06-17 1255 E 2 4------ 37.6- 37.6---
2024-06-17 1245 NE 4 5------ 37.4- 37.4---
2024-06-17 1235 NE 5 7------ 37.2- 37.2---
2024-06-17 1225 NE 6 8------ 37.0- 37.0---
2024-06-17 1215ENE 6 8------ 37.4- 37.4---
2024-06-17 1205ENE 5 8------ 37.9- 37.9---
2024-06-17 1155ENE 6 7------ 38.1- 38.1---
2024-06-17 1145 E 5 7------ 38.3- 38.3---
2024-06-17 1135 E 5 7------ 38.3- 38.3---
2024-06-17 1125 E 5 6------ 38.7- 38.7---
2024-06-17 1115ENE 5 7------ 38.8- 38.8---
2024-06-17 1105 E 5 7------ 38.8- 38.8---
2024-06-17 1055 NE 4 6------ 39.2- 39.2---
2024-06-17 1045ENE 4 6------ 39.6- 39.6---
2024-06-17 1035 E 6 10------ 39.7- 39.7---
2024-06-17 1025ENE 7 9------ 40.1- 40.1---
2024-06-17 1015ENE 5 7------ 40.3- 40.3---
2024-06-17 1005ENE 5 7------ 40.3- 40.3---
2024-06-17 0955 NE 5 8------ 40.6- 40.6---
2024-06-17 0945ENE 3 6------ 40.8- 40.8---
2024-06-17 0935 NE 6 8------ 40.8- 40.8---
2024-06-17 0925 NE 6 8------ 41.2- 41.2---
2024-06-17 0915 NE 6 8------ 41.4- 41.4---
2024-06-17 0905 NE 6 9------ 41.7- 41.7---
2024-06-17 0855 NE 6 8------ 41.9- 41.9---
2024-06-17 0835 NE 8 11------ 42.1- 42.1---
2024-06-17 0825 NE 7 9------ 42.3- 42.3---
2024-06-17 0816NNE 8 10------ 42.4- 42.4---
2024-06-17 0805 N 6 9------ 42.6- 42.6---
2024-06-17 0755NNW 5 7------ 42.4- 42.3---
2024-06-17 0745 N 5 6------ 42.6- 41.9---
2024-06-17 0735 N 5 7------ 42.8- 41.9---
2024-06-17 0725 N 4 6------ 43.0- 41.7---
2024-06-17 0715 N 4 6------ 43.0- 41.7---
2024-06-17 0705 N 5 6------ 43.2- 41.7---
2024-06-17 0655 N 4 6------ 43.3- 41.7---
2024-06-17 0645NNW 4 6------ 43.3- 41.9---
2024-06-17 0635NNW 5 6------ 43.5- 41.9---
2024-06-17 0625NNW 4 7------ 43.7- 41.9---
2024-06-17 0615NNW 5 8------ 44.2- 41.9---
2024-06-17 0605NNW 4 8------ 45.3- 41.9---
2024-06-17 0555NNW 5 10------ 45.3- 41.7---
2024-06-17 0545WNW 4 8------ 45.9- 42.8---
2024-06-17 0535WNW 4 6------ 45.0- 43.0---
2024-06-17 0525NNW 4 7------ 44.4- 42.8---
2024-06-17 0515NNW 4 6------ 44.8- 42.8---
2024-06-17 0505 N 4 7------ 44.4- 43.0---
2024-06-17 0455 N 5 7------ 44.4- 43.0---
2024-06-17 0445 N 5 7------ 44.4- 43.0---
2024-06-17 0435NNE 6 9------ 45.0- 43.0---
2024-06-17 0425NNE 7 11------ 45.3- 43.2---
2024-06-17 0415NNE 7 11------ 45.5- 43.3---
2024-06-17 0405NNE 8 11------ 45.5- 43.5---
2024-06-17 0355NNE 8 11------ 45.7- 43.5---
2024-06-17 0345NNE 8 12------ 45.7- 43.3---
2024-06-17 0335NNE 7 10------ 46.4- 43.7---
2024-06-17 0325 NE 9 13------ 46.8- 43.5---
2024-06-17 0315 NE 11 15------ 46.4- 43.3---
2024-06-17 0305 NE 11 15------ 46.6- 43.2---
2024-06-17 0245 NE 10 15------ 47.3- 43.5---
2024-06-17 0235 NE 10 16------ 46.9- 43.7---
2024-06-17 0225 NE 11 15------ 47.1- 43.9---
2024-06-17 0215 NE 11 16------ 46.9- 44.1---
2024-06-17 0205ENE 12 17------ 46.6- 44.1---
2024-06-17 0155 NE 12 16------ 46.4- 44.2---
2024-06-17 0145ENE 13 17------ 46.4- 44.2---
2024-06-17 0135ENE 13 17------ 45.9- 44.2---
2024-06-17 0125ENE 14 18------ 45.0- 43.9---
2024-06-17 0115ENE 13 17------ 44.4- 43.2---
2024-06-17 0105ENE 11 15------ 44.4- 42.6---
2024-06-17 0055 NE 11 14------ 45.5- 42.6---
2024-06-17 0045 NE 11 13------ 46.0- 43.0---
2024-06-17 0035 NE 12 16------ 46.2- 43.0---
2024-06-17 0025 NE 12 16------ 47.7- 43.3---
2024-06-17 0015ENE 12 15------ 47.8- 43.3---
2024-06-16 2355ENE 13 16------ 48.6- 43.2---
2024-06-16 2345ENE 12 17------ 47.8- 43.5---
2024-06-16 2335ENE 13 17------ 47.5- 44.1---
2024-06-16 2325ENE 13 18------ 47.3- 44.1---
2024-06-16 2315ENE 14 17------ 47.3- 44.2---
2024-06-16 2305ENE 13 18------ 46.9- 44.2---
2024-06-16 2255ENE 13 17------ 46.9- 44.4---